sensor_id;sensor_type;location;lat;lon;timestamp;temperature;humidity
22852;DHT22;11592;45.460;9.240;2023-05-17T00:02:16;16.90;99.90
22852;DHT22;11592;45.460;9.240;2023-05-17T00:04:43;16.80;99.90
22852;DHT22;11592;45.460;9.240;2023-05-17T00:07:13;16.70;99.90
22852;DHT22;11592;45.460;9.240;2023-05-17T00:09:40;16.50;99.90
22852;DHT22;11592;45.460;9.240;2023-05-17T00:12:07;16.40;99.90
22852;DHT22;11592;45.460;9.240;2023-05-17T00:14:34;16.30;99.90
22852;DHT22;11592;45.460;9.240;2023-05-17T00:17:01;16.30;99.90
22852;DHT22;11592;45.460;9.240;2023-05-17T00:19:28;16.30;99.90
22852;DHT22;11592;45.460;9.240;2023-05-17T00:21:54;16.40;99.90
22852;DHT22;11592;45.460;9.240;2023-05-17T00:24:21;16.40;99.90
22852;DHT22;11592;45.460;9.240;2023-05-17T00:26:48;16.50;99.90
22852;DHT22;11592;45.460;9.240;2023-05-17T00:29:15;16.50;99.90
22852;DHT22;11592;45.460;9.240;2023-05-17T00:31:42;16.50;99.90
22852;DHT22;11592;45.460;9.240;2023-05-17T00:34:09;16.50;99.90
22852;DHT22;11592;45.460;9.240;2023-05-17T00:36:35;16.50;99.90
22852;DHT22;11592;45.460;9.240;2023-05-17T00:39:02;16.60;99.90
22852;DHT22;11592;45.460;9.240;2023-05-17T00:41:29;16.50;99.90
22852;DHT22;11592;45.460;9.240;2023-05-17T00:43:56;16.50;99.90
22852;DHT22;11592;45.460;9.240;2023-05-17T00:46:23;16.50;99.90
22852;DHT22;11592;45.460;9.240;2023-05-17T00:48:50;16.50;99.90
22852;DHT22;11592;45.460;9.240;2023-05-17T00:51:18;16.40;99.90
22852;DHT22;11592;45.460;9.240;2023-05-17T00:53:45;16.40;99.90
22852;DHT22;11592;45.460;9.240;2023-05-17T00:56:12;16.40;99.90
22852;DHT22;11592;45.460;9.240;2023-05-17T00:58:40;16.40;99.90
22852;DHT22;11592;45.460;9.240;2023-05-17T01:01:08;16.40;99.90
22852;DHT22;11592;45.460;9.240;2023-05-17T01:03:34;16.40;99.90
22852;DHT22;11592;45.460;9.240;2023-05-17T01:06:01;16.40;99.90
22852;DHT22;11592;45.460;9.240;2023-05-17T01:08:29;16.40;99.90
22852;DHT22;11592;45.460;9.240;2023-05-17T01:14:01;16.40;99.90
22852;DHT22;11592;45.460;9.240;2023-05-17T01:25:10;16.40;99.90
22852;DHT22;11592;45.460;9.240;2023-05-17T01:27:40;16.40;99.90
22852;DHT22;11592;45.460;9.240;2023-05-17T01:30:11;16.30;99.90
22852;DHT22;11592;45.460;9.240;2023-05-17T01:32:40;16.30;99.90
22852;DHT22;11592;45.460;9.240;2023-05-17T01:35:10;16.30;99.90
22852;DHT22;11592;45.460;9.240;2023-05-17T01:37:38;16.30;99.90
22852;DHT22;11592;45.460;9.240;2023-05-17T01:40:06;16.30;99.90
22852;DHT22;11592;45.460;9.240;2023-05-17T01:42:37;16.20;99.90
22852;DHT22;11592;45.460;9.240;2023-05-17T01:47:48;16.20;99.90
22852;DHT22;11592;45.460;9.240;2023-05-17T01:50:22;16.20;99.90
22852;DHT22;11592;45.460;9.240;2023-05-17T01:52:55;16.20;99.90
22852;DHT22;11592;45.460;9.240;2023-05-17T01:55:48;16.20;99.90
22852;DHT22;11592;45.460;9.240;2023-05-17T01:58:17;16.20;99.90
22852;DHT22;11592;45.460;9.240;2023-05-17T02:00:48;16.20;99.90
22852;DHT22;11592;45.460;9.240;2023-05-17T02:03:18;16.20;99.90
22852;DHT22;11592;45.460;9.240;2023-05-17T02:05:45;16.10;99.90
22852;DHT22;11592;45.460;9.240;2023-05-17T02:08:13;16.20;99.90
22852;DHT22;11592;45.460;9.240;2023-05-17T02:10:39;16.20;99.90
22852;DHT22;11592;45.460;9.240;2023-05-17T02:13:06;16.20;99.90
22852;DHT22;11592;45.460;9.240;2023-05-17T02:15:33;16.20;99.90
22852;DHT22;11592;45.460;9.240;2023-05-17T02:18:00;16.20;99.90
22852;DHT22;11592;45.460;9.240;2023-05-17T02:20:27;16.20;99.90
22852;DHT22;11592;45.460;9.240;2023-05-17T02:22:54;16.30;99.90
22852;DHT22;11592;45.460;9.240;2023-05-17T02:25:21;16.20;99.90
22852;DHT22;11592;45.460;9.240;2023-05-17T02:27:47;16.20;99.90
22852;DHT22;11592;45.460;9.240;2023-05-17T02:30:14;16.20;99.90
22852;DHT22;11592;45.460;9.240;2023-05-17T02:32:43;16.30;99.90
22852;DHT22;11592;45.460;9.240;2023-05-17T02:35:10;16.20;99.90
22852;DHT22;11592;45.460;9.240;2023-05-17T02:37:37;16.10;99.90
22852;DHT22;11592;45.460;9.240;2023-05-17T02:40:08;16.20;99.90
22852;DHT22;11592;45.460;9.240;2023-05-17T02:42:36;16.30;99.90
22852;DHT22;11592;45.460;9.240;2023-05-17T02:45:03;16.30;99.90
22852;DHT22;11592;45.460;9.240;2023-05-17T02:47:30;16.30;99.90
22852;DHT22;11592;45.460;9.240;2023-05-17T02:49:57;16.30;99.90
22852;DHT22;11592;45.460;9.240;2023-05-17T02:52:24;16.20;99.90
22852;DHT22;11592;45.460;9.240;2023-05-17T02:54:51;16.20;99.90
22852;DHT22;11592;45.460;9.240;2023-05-17T02:57:18;16.30;99.90
22852;DHT22;11592;45.460;9.240;2023-05-17T02:59:45;16.20;99.90
22852;DHT22;11592;45.460;9.240;2023-05-17T03:02:12;16.20;99.90
22852;DHT22;11592;45.460;9.240;2023-05-17T03:04:38;16.20;99.90
22852;DHT22;11592;45.460;9.240;2023-05-17T03:07:06;16.20;99.90
22852;DHT22;11592;45.460;9.240;2023-05-17T03:09:33;16.20;99.90
22852;DHT22;11592;45.460;9.240;2023-05-17T03:12:00;16.10;99.90
22852;DHT22;11592;45.460;9.240;2023-05-17T03:14:27;16.10;99.90
22852;DHT22;11592;45.460;9.240;2023-05-17T03:16:54;16.10;99.90
22852;DHT22;11592;45.460;9.240;2023-05-17T03:19:20;16.20;99.90
22852;DHT22;11592;45.460;9.240;2023-05-17T03:21:48;16.10;99.90
22852;DHT22;11592;45.460;9.240;2023-05-17T03:24:14;16.10;99.90
22852;DHT22;11592;45.460;9.240;2023-05-17T03:26:41;16.10;99.90
22852;DHT22;11592;45.460;9.240;2023-05-17T03:29:08;16.10;99.90
22852;DHT22;11592;45.460;9.240;2023-05-17T03:31:35;16.10;99.90
22852;DHT22;11592;45.460;9.240;2023-05-17T03:34:02;16.10;99.90
22852;DHT22;11592;45.460;9.240;2023-05-17T03:36:29;16.10;99.90
22852;DHT22;11592;45.460;9.240;2023-05-17T03:38:56;16.10;99.90
22852;DHT22;11592;45.460;9.240;2023-05-17T03:41:23;16.10;99.90
22852;DHT22;11592;45.460;9.240;2023-05-17T03:43:50;16.10;99.90
22852;DHT22;11592;45.460;9.240;2023-05-17T03:46:17;16.10;99.90
22852;DHT22;11592;45.460;9.240;2023-05-17T03:48:44;16.10;99.90
22852;DHT22;11592;45.460;9.240;2023-05-17T03:51:11;16.10;99.90
22852;DHT22;11592;45.460;9.240;2023-05-17T03:53:38;16.10;99.90
22852;DHT22;11592;45.460;9.240;2023-05-17T03:56:09;16.10;99.90
22852;DHT22;11592;45.460;9.240;2023-05-17T03:58:36;16.10;99.90
22852;DHT22;11592;45.460;9.240;2023-05-17T04:01:03;16.10;99.90
22852;DHT22;11592;45.460;9.240;2023-05-17T04:03:30;16.10;99.90
22852;DHT22;11592;45.460;9.240;2023-05-17T04:06:02;16.10;99.90
22852;DHT22;11592;45.460;9.240;2023-05-17T04:08:33;16.10;99.90
22852;DHT22;11592;45.460;9.240;2023-05-17T04:11:00;16.00;99.90
22852;DHT22;11592;45.460;9.240;2023-05-17T04:13:36;16.10;99.90
22852;DHT22;11592;45.460;9.240;2023-05-17T04:16:03;16.10;99.90
22852;DHT22;11592;45.460;9.240;2023-05-17T04:18:35;16.10;99.90
22852;DHT22;11592;45.460;9.240;2023-05-17T04:21:03;16.10;99.90
22852;DHT22;11592;45.460;9.240;2023-05-17T04:23:31;16.10;99.90
22852;DHT22;11592;45.460;9.240;2023-05-17T04:25:58;16.10;99.90
22852;DHT22;11592;45.460;9.240;2023-05-17T04:28:25;16.10;99.90
22852;DHT22;11592;45.460;9.240;2023-05-17T04:30:52;16.10;99.90
22852;DHT22;11592;45.460;9.240;2023-05-17T04:33:19;16.10;99.90
22852;DHT22;11592;45.460;9.240;2023-05-17T04:35:46;16.10;99.90
22852;DHT22;11592;45.460;9.240;2023-05-17T04:38:13;16.10;99.90
22852;DHT22;11592;45.460;9.240;2023-05-17T04:40:40;16.20;99.90
22852;DHT22;11592;45.460;9.240;2023-05-17T04:43:08;16.10;99.90
22852;DHT22;11592;45.460;9.240;2023-05-17T04:45:35;16.10;99.90
22852;DHT22;11592;45.460;9.240;2023-05-17T04:48:03;16.20;99.90
22852;DHT22;11592;45.460;9.240;2023-05-17T04:50:30;16.20;99.90
22852;DHT22;11592;45.460;9.240;2023-05-17T04:52:57;16.00;99.90
22852;DHT22;11592;45.460;9.240;2023-05-17T04:55:24;16.10;99.90
22852;DHT22;11592;45.460;9.240;2023-05-17T04:57:51;16.20;99.90
22852;DHT22;11592;45.460;9.240;2023-05-17T05:00:18;16.30;99.90
22852;DHT22;11592;45.460;9.240;2023-05-17T05:02:46;16.30;99.90
22852;DHT22;11592;45.460;9.240;2023-05-17T05:05:13;16.30;99.90
22852;DHT22;11592;45.460;9.240;2023-05-17T05:07:40;16.30;99.90
22852;DHT22;11592;45.460;9.240;2023-05-17T05:10:07;16.40;99.90
22852;DHT22;11592;45.460;9.240;2023-05-17T05:12:34;16.40;99.90
22852;DHT22;11592;45.460;9.240;2023-05-17T05:15:01;16.40;99.90
22852;DHT22;11592;45.460;9.240;2023-05-17T05:17:29;16.40;99.90
22852;DHT22;11592;45.460;9.240;2023-05-17T05:19:56;16.40;99.90
22852;DHT22;11592;45.460;9.240;2023-05-17T05:22:24;16.40;99.90
22852;DHT22;11592;45.460;9.240;2023-05-17T05:24:51;16.40;99.90
22852;DHT22;11592;45.460;9.240;2023-05-17T05:27:18;16.40;99.90
22852;DHT22;11592;45.460;9.240;2023-05-17T05:29:45;16.30;99.90
22852;DHT22;11592;45.460;9.240;2023-05-17T05:32:12;16.40;99.90
22852;DHT22;11592;45.460;9.240;2023-05-17T05:34:40;16.40;99.90
22852;DHT22;11592;45.460;9.240;2023-05-17T05:37:07;16.50;99.90
22852;DHT22;11592;45.460;9.240;2023-05-17T05:39:34;16.50;99.90
22852;DHT22;11592;45.460;9.240;2023-05-17T05:42:01;16.50;99.90
22852;DHT22;11592;45.460;9.240;2023-05-17T05:44:30;16.50;99.90
22852;DHT22;11592;45.460;9.240;2023-05-17T05:46:57;16.50;99.90
22852;DHT22;11592;45.460;9.240;2023-05-17T05:49:24;16.50;99.90
22852;DHT22;11592;45.460;9.240;2023-05-17T05:51:51;16.50;99.90
22852;DHT22;11592;45.460;9.240;2023-05-17T05:54:18;16.50;99.90
22852;DHT22;11592;45.460;9.240;2023-05-17T05:56:44;16.50;99.90
22852;DHT22;11592;45.460;9.240;2023-05-17T05:59:11;16.60;99.90
22852;DHT22;11592;45.460;9.240;2023-05-17T06:01:38;16.60;99.90
22852;DHT22;11592;45.460;9.240;2023-05-17T06:04:05;16.60;99.90
22852;DHT22;11592;45.460;9.240;2023-05-17T06:06:32;16.60;99.90
22852;DHT22;11592;45.460;9.240;2023-05-17T06:08:59;16.60;99.90
22852;DHT22;11592;45.460;9.240;2023-05-17T06:11:26;16.60;99.90
22852;DHT22;11592;45.460;9.240;2023-05-17T06:13:53;16.60;99.90
22852;DHT22;11592;45.460;9.240;2023-05-17T06:16:20;16.60;99.90
22852;DHT22;11592;45.460;9.240;2023-05-17T06:18:46;16.60;99.90
22852;DHT22;11592;45.460;9.240;2023-05-17T06:21:16;16.50;99.90
22852;DHT22;11592;45.460;9.240;2023-05-17T06:23:44;16.50;99.90
22852;DHT22;11592;45.460;9.240;2023-05-17T06:26:11;16.40;99.90
22852;DHT22;11592;45.460;9.240;2023-05-17T06:28:38;16.50;99.90
22852;DHT22;11592;45.460;9.240;2023-05-17T06:31:04;16.50;99.90
22852;DHT22;11592;45.460;9.240;2023-05-17T06:33:31;16.50;99.90
22852;DHT22;11592;45.460;9.240;2023-05-17T06:35:58;16.50;99.90
22852;DHT22;11592;45.460;9.240;2023-05-17T06:38:26;16.50;99.90
22852;DHT22;11592;45.460;9.240;2023-05-17T06:40:54;16.50;99.90
22852;DHT22;11592;45.460;9.240;2023-05-17T06:43:21;16.70;99.90
22852;DHT22;11592;45.460;9.240;2023-05-17T06:45:48;16.70;99.90
22852;DHT22;11592;45.460;9.240;2023-05-17T06:48:15;16.60;99.90
22852;DHT22;11592;45.460;9.240;2023-05-17T06:50:42;16.70;99.90
22852;DHT22;11592;45.460;9.240;2023-05-17T06:53:09;16.70;99.90
22852;DHT22;11592;45.460;9.240;2023-05-17T06:55:36;16.70;99.90
22852;DHT22;11592;45.460;9.240;2023-05-17T06:58:03;16.50;99.90
22852;DHT22;11592;45.460;9.240;2023-05-17T07:00:32;16.30;99.90
22852;DHT22;11592;45.460;9.240;2023-05-17T07:02:59;16.10;99.90
22852;DHT22;11592;45.460;9.240;2023-05-17T07:05:27;15.90;99.90
22852;DHT22;11592;45.460;9.240;2023-05-17T07:07:59;15.90;99.90
22852;DHT22;11592;45.460;9.240;2023-05-17T07:10:26;15.90;99.90
22852;DHT22;11592;45.460;9.240;2023-05-17T07:12:53;15.90;99.90
22852;DHT22;11592;45.460;9.240;2023-05-17T07:15:20;15.80;99.90
22852;DHT22;11592;45.460;9.240;2023-05-17T07:17:47;16.00;99.90
22852;DHT22;11592;45.460;9.240;2023-05-17T07:20:14;16.00;99.90
22852;DHT22;11592;45.460;9.240;2023-05-17T07:22:42;15.80;99.90
22852;DHT22;11592;45.460;9.240;2023-05-17T07:25:09;15.70;99.90
22852;DHT22;11592;45.460;9.240;2023-05-17T07:27:36;15.70;99.90
22852;DHT22;11592;45.460;9.240;2023-05-17T07:30:03;15.70;99.90
22852;DHT22;11592;45.460;9.240;2023-05-17T07:32:30;15.80;99.90
22852;DHT22;11592;45.460;9.240;2023-05-17T07:34:59;15.70;99.90
22852;DHT22;11592;45.460;9.240;2023-05-17T07:37:27;15.60;99.90
22852;DHT22;11592;45.460;9.240;2023-05-17T07:39:54;15.60;99.90
22852;DHT22;11592;45.460;9.240;2023-05-17T07:42:21;15.60;99.90
22852;DHT22;11592;45.460;9.240;2023-05-17T07:44:48;15.70;99.90
22852;DHT22;11592;45.460;9.240;2023-05-17T07:47:15;15.80;99.90
22852;DHT22;11592;45.460;9.240;2023-05-17T07:49:42;15.70;99.90
22852;DHT22;11592;45.460;9.240;2023-05-17T07:52:12;15.60;99.90
22852;DHT22;11592;45.460;9.240;2023-05-17T07:54:38;15.50;99.90
22852;DHT22;11592;45.460;9.240;2023-05-17T07:57:05;15.50;99.90
22852;DHT22;11592;45.460;9.240;2023-05-17T07:59:32;15.70;99.90
22852;DHT22;11592;45.460;9.240;2023-05-17T08:01:59;15.60;99.90
22852;DHT22;11592;45.460;9.240;2023-05-17T08:04:26;15.70;99.90
22852;DHT22;11592;45.460;9.240;2023-05-17T08:06:52;15.50;99.90
22852;DHT22;11592;45.460;9.240;2023-05-17T08:09:20;15.70;99.90
22852;DHT22;11592;45.460;9.240;2023-05-17T08:11:47;15.80;99.90
22852;DHT22;11592;45.460;9.240;2023-05-17T08:14:15;15.90;99.90
22852;DHT22;11592;45.460;9.240;2023-05-17T08:16:44;15.90;99.90
22852;DHT22;11592;45.460;9.240;2023-05-17T08:19:12;15.90;99.90
22852;DHT22;11592;45.460;9.240;2023-05-17T08:21:41;15.90;99.90
22852;DHT22;11592;45.460;9.240;2023-05-17T08:24:08;16.00;99.90
22852;DHT22;11592;45.460;9.240;2023-05-17T08:26:35;16.10;99.90
22852;DHT22;11592;45.460;9.240;2023-05-17T08:29:02;16.10;99.90
22852;DHT22;11592;45.460;9.240;2023-05-17T08:31:31;16.00;99.90
22852;DHT22;11592;45.460;9.240;2023-05-17T08:33:58;15.90;99.90
22852;DHT22;11592;45.460;9.240;2023-05-17T08:36:25;15.90;99.90
22852;DHT22;11592;45.460;9.240;2023-05-17T08:38:52;15.90;99.90
22852;DHT22;11592;45.460;9.240;2023-05-17T08:41:19;16.10;99.90
22852;DHT22;11592;45.460;9.240;2023-05-17T08:43:48;16.30;99.90
22852;DHT22;11592;45.460;9.240;2023-05-17T08:46:17;16.30;99.90
22852;DHT22;11592;45.460;9.240;2023-05-17T08:48:49;16.40;99.90
22852;DHT22;11592;45.460;9.240;2023-05-17T08:51:18;16.30;99.90
22852;DHT22;11592;45.460;9.240;2023-05-17T08:53:46;16.30;99.90
22852;DHT22;11592;45.460;9.240;2023-05-17T08:56:15;16.10;99.90
22852;DHT22;11592;45.460;9.240;2023-05-17T08:58:43;16.10;99.90
22852;DHT22;11592;45.460;9.240;2023-05-17T09:01:23;16.40;99.90
22852;DHT22;11592;45.460;9.240;2023-05-17T09:03:52;16.40;99.90
22852;DHT22;11592;45.460;9.240;2023-05-17T09:06:20;16.40;99.90
22852;DHT22;11592;45.460;9.240;2023-05-17T09:08:52;16.20;99.90
22852;DHT22;11592;45.460;9.240;2023-05-17T09:11:29;16.10;99.90
22852;DHT22;11592;45.460;9.240;2023-05-17T09:14:05;16.20;99.90
22852;DHT22;11592;45.460;9.240;2023-05-17T09:16:36;16.00;99.90
22852;DHT22;11592;45.460;9.240;2023-05-17T09:19:05;16.10;99.90
22852;DHT22;11592;45.460;9.240;2023-05-17T09:21:34;16.20;99.90
22852;DHT22;11592;45.460;9.240;2023-05-17T09:24:01;16.30;99.90
22852;DHT22;11592;45.460;9.240;2023-05-17T09:26:41;16.20;99.90
22852;DHT22;11592;45.460;9.240;2023-05-17T09:29:09;16.10;99.90
22852;DHT22;11592;45.460;9.240;2023-05-17T09:31:37;16.10;99.90
22852;DHT22;11592;45.460;9.240;2023-05-17T09:34:05;16.00;99.90
22852;DHT22;11592;45.460;9.240;2023-05-17T09:36:41;16.30;99.90
22852;DHT22;11592;45.460;9.240;2023-05-17T09:39:10;16.60;99.90
22852;DHT22;11592;45.460;9.240;2023-05-17T09:41:48;17.00;99.90
22852;DHT22;11592;45.460;9.240;2023-05-17T09:44:16;17.10;99.90
22852;DHT22;11592;45.460;9.240;2023-05-17T09:46:45;16.90;99.90
22852;DHT22;11592;45.460;9.240;2023-05-17T09:49:13;16.70;99.90
22852;DHT22;11592;45.460;9.240;2023-05-17T09:51:42;16.70;99.90
22852;DHT22;11592;45.460;9.240;2023-05-17T09:54:10;16.60;99.90
22852;DHT22;11592;45.460;9.240;2023-05-17T09:56:37;16.50;99.90
22852;DHT22;11592;45.460;9.240;2023-05-17T09:59:13;16.50;99.90
22852;DHT22;11592;45.460;9.240;2023-05-17T10:01:42;16.60;99.90
22852;DHT22;11592;45.460;9.240;2023-05-17T10:04:11;16.70;99.90
22852;DHT22;11592;45.460;9.240;2023-05-17T10:06:39;16.90;99.90
22852;DHT22;11592;45.460;9.240;2023-05-17T10:09:12;17.10;99.90
22852;DHT22;11592;45.460;9.240;2023-05-17T10:11:42;17.00;99.90
22852;DHT22;11592;45.460;9.240;2023-05-17T10:14:24;17.10;99.90
22852;DHT22;11592;45.460;9.240;2023-05-17T10:16:53;17.10;99.90
22852;DHT22;11592;45.460;9.240;2023-05-17T10:19:20;17.30;99.90
22852;DHT22;11592;45.460;9.240;2023-05-17T10:21:49;17.20;99.90
22852;DHT22;11592;45.460;9.240;2023-05-17T10:24:19;17.30;99.90
22852;DHT22;11592;45.460;9.240;2023-05-17T10:26:50;17.30;99.90
22852;DHT22;11592;45.460;9.240;2023-05-17T10:29:17;17.50;99.90
22852;DHT22;11592;45.460;9.240;2023-05-17T10:31:48;17.60;99.90
22852;DHT22;11592;45.460;9.240;2023-05-17T10:34:19;17.60;99.90
22852;DHT22;11592;45.460;9.240;2023-05-17T10:36:48;17.80;99.90
22852;DHT22;11592;45.460;9.240;2023-05-17T10:39:16;17.90;99.90
22852;DHT22;11592;45.460;9.240;2023-05-17T10:41:45;17.80;99.90
22852;DHT22;11592;45.460;9.240;2023-05-17T10:44:15;17.80;99.90
22852;DHT22;11592;45.460;9.240;2023-05-17T10:46:55;17.80;99.90
22852;DHT22;11592;45.460;9.240;2023-05-17T10:49:24;17.80;99.90
22852;DHT22;11592;45.460;9.240;2023-05-17T10:51:53;17.80;99.90
22852;DHT22;11592;45.460;9.240;2023-05-17T10:54:20;17.90;99.90
22852;DHT22;11592;45.460;9.240;2023-05-17T10:56:48;17.60;99.90
22852;DHT22;11592;45.460;9.240;2023-05-17T10:59:26;17.80;99.90
22852;DHT22;11592;45.460;9.240;2023-05-17T11:02:08;18.00;99.90
22852;DHT22;11592;45.460;9.240;2023-05-17T11:04:40;18.10;99.90
22852;DHT22;11592;45.460;9.240;2023-05-17T11:15:11;18.30;99.90
22852;DHT22;11592;45.460;9.240;2023-05-17T11:22:58;17.80;99.90
22852;DHT22;11592;45.460;9.240;2023-05-17T11:25:30;17.60;99.90
22852;DHT22;11592;45.460;9.240;2023-05-17T11:27:58;17.80;99.90
22852;DHT22;11592;45.460;9.240;2023-05-17T11:30:30;18.10;99.90
22852;DHT22;11592;45.460;9.240;2023-05-17T11:33:01;18.10;99.90
22852;DHT22;11592;45.460;9.240;2023-05-17T11:35:32;18.00;99.90
22852;DHT22;11592;45.460;9.240;2023-05-17T11:40:51;18.40;99.90
22852;DHT22;11592;45.460;9.240;2023-05-17T11:43:20;18.40;99.90
22852;DHT22;11592;45.460;9.240;2023-05-17T11:45:56;18.50;99.90
22852;DHT22;11592;45.460;9.240;2023-05-17T11:48:24;18.50;99.90
22852;DHT22;11592;45.460;9.240;2023-05-17T11:50:53;18.50;99.90
22852;DHT22;11592;45.460;9.240;2023-05-17T11:53:20;18.70;99.90
22852;DHT22;11592;45.460;9.240;2023-05-17T11:55:49;18.50;99.90
22852;DHT22;11592;45.460;9.240;2023-05-17T11:58:19;18.50;99.90
22852;DHT22;11592;45.460;9.240;2023-05-17T12:00:52;18.60;99.90
22852;DHT22;11592;45.460;9.240;2023-05-17T12:03:23;18.60;99.90
22852;DHT22;11592;45.460;9.240;2023-05-17T12:06:07;18.70;99.90
22852;DHT22;11592;45.460;9.240;2023-05-17T12:08:37;18.60;99.90
22852;DHT22;11592;45.460;9.240;2023-05-17T12:11:05;18.50;99.90
22852;DHT22;11592;45.460;9.240;2023-05-17T12:13:33;18.50;99.90
22852;DHT22;11592;45.460;9.240;2023-05-17T12:16:02;18.50;99.90
22852;DHT22;11592;45.460;9.240;2023-05-17T12:21:02;18.30;99.90
22852;DHT22;11592;45.460;9.240;2023-05-17T12:23:50;18.10;99.90
22852;DHT22;11592;45.460;9.240;2023-05-17T12:26:21;17.90;99.90
22852;DHT22;11592;45.460;9.240;2023-05-17T12:28:58;18.00;99.90
22852;DHT22;11592;45.460;9.240;2023-05-17T12:33:55;18.00;99.90
22852;DHT22;11592;45.460;9.240;2023-05-17T12:36:27;18.20;99.90
22852;DHT22;11592;45.460;9.240;2023-05-17T12:38:55;18.10;99.90
22852;DHT22;11592;45.460;9.240;2023-05-17T12:41:23;18.20;99.90
22852;DHT22;11592;45.460;9.240;2023-05-17T12:43:51;18.20;99.90
22852;DHT22;11592;45.460;9.240;2023-05-17T12:46:38;18.30;99.90
22852;DHT22;11592;45.460;9.240;2023-05-17T12:49:07;18.30;99.90
22852;DHT22;11592;45.460;9.240;2023-05-17T12:51:45;18.50;99.90
22852;DHT22;11592;45.460;9.240;2023-05-17T12:54:23;18.60;99.90
22852;DHT22;11592;45.460;9.240;2023-05-17T12:56:51;18.60;99.90
22852;DHT22;11592;45.460;9.240;2023-05-17T12:59:18;18.50;99.90
22852;DHT22;11592;45.460;9.240;2023-05-17T13:01:53;18.60;99.90
22852;DHT22;11592;45.460;9.240;2023-05-17T13:04:30;19.00;99.90
22852;DHT22;11592;45.460;9.240;2023-05-17T13:07:01;19.10;99.90
22852;DHT22;11592;45.460;9.240;2023-05-17T13:09:29;19.10;99.90
22852;DHT22;11592;45.460;9.240;2023-05-17T13:12:01;19.00;99.90
22852;DHT22;11592;45.460;9.240;2023-05-17T13:17:04;19.00;99.90
22852;DHT22;11592;45.460;9.240;2023-05-17T13:19:31;18.90;99.90
22852;DHT22;11592;45.460;9.240;2023-05-17T13:21:59;19.20;99.90
22852;DHT22;11592;45.460;9.240;2023-05-17T13:24:25;18.90;99.90
22852;DHT22;11592;45.460;9.240;2023-05-17T13:26:54;18.90;99.90
22852;DHT22;11592;45.460;9.240;2023-05-17T13:29:20;19.00;99.90
22852;DHT22;11592;45.460;9.240;2023-05-17T13:32:05;19.20;99.90
22852;DHT22;11592;45.460;9.240;2023-05-17T13:34:34;19.50;99.90
22852;DHT22;11592;45.460;9.240;2023-05-17T13:37:01;19.40;99.90
22852;DHT22;11592;45.460;9.240;2023-05-17T13:39:28;19.50;99.90
22852;DHT22;11592;45.460;9.240;2023-05-17T13:41:54;19.80;99.90
22852;DHT22;11592;45.460;9.240;2023-05-17T13:44:21;20.00;99.90
22852;DHT22;11592;45.460;9.240;2023-05-17T13:46:48;20.20;99.90
22852;DHT22;11592;45.460;9.240;2023-05-17T13:49:15;20.10;99.90
22852;DHT22;11592;45.460;9.240;2023-05-17T13:51:42;20.00;99.90
22852;DHT22;11592;45.460;9.240;2023-05-17T13:54:10;20.00;99.90
22852;DHT22;11592;45.460;9.240;2023-05-17T13:56:37;20.20;99.90
22852;DHT22;11592;45.460;9.240;2023-05-17T13:59:03;20.30;99.90
22852;DHT22;11592;45.460;9.240;2023-05-17T14:01:30;20.50;99.90
22852;DHT22;11592;45.460;9.240;2023-05-17T14:03:57;20.60;99.90
22852;DHT22;11592;45.460;9.240;2023-05-17T14:06:26;20.80;99.90
22852;DHT22;11592;45.460;9.240;2023-05-17T14:08:53;20.60;99.90
22852;DHT22;11592;45.460;9.240;2023-05-17T14:11:21;20.50;99.90
22852;DHT22;11592;45.460;9.240;2023-05-17T14:13:48;20.70;99.90
22852;DHT22;11592;45.460;9.240;2023-05-17T14:16:15;20.90;99.90
22852;DHT22;11592;45.460;9.240;2023-05-17T14:18:41;21.00;99.90
22852;DHT22;11592;45.460;9.240;2023-05-17T14:21:08;21.20;99.90
22852;DHT22;11592;45.460;9.240;2023-05-17T14:23:35;21.10;99.90
22852;DHT22;11592;45.460;9.240;2023-05-17T14:26:03;21.10;99.90
22852;DHT22;11592;45.460;9.240;2023-05-17T14:28:33;20.90;99.90
22852;DHT22;11592;45.460;9.240;2023-05-17T14:31:07;20.90;99.90
22852;DHT22;11592;45.460;9.240;2023-05-17T14:33:34;21.00;99.90
22852;DHT22;11592;45.460;9.240;2023-05-17T14:36:02;20.80;99.90
22852;DHT22;11592;45.460;9.240;2023-05-17T14:38:29;20.90;99.90
22852;DHT22;11592;45.460;9.240;2023-05-17T14:40:57;20.80;99.90
22852;DHT22;11592;45.460;9.240;2023-05-17T14:43:26;21.00;99.90
22852;DHT22;11592;45.460;9.240;2023-05-17T14:45:53;20.90;99.90
22852;DHT22;11592;45.460;9.240;2023-05-17T14:48:20;21.00;99.90
22852;DHT22;11592;45.460;9.240;2023-05-17T14:50:47;21.00;99.90
22852;DHT22;11592;45.460;9.240;2023-05-17T14:53:13;20.90;99.90
22852;DHT22;11592;45.460;9.240;2023-05-17T14:55:41;21.00;99.90
22852;DHT22;11592;45.460;9.240;2023-05-17T14:58:07;21.10;99.90
22852;DHT22;11592;45.460;9.240;2023-05-17T15:00:34;21.20;99.90
22852;DHT22;11592;45.460;9.240;2023-05-17T15:03:01;21.20;99.90
22852;DHT22;11592;45.460;9.240;2023-05-17T15:05:28;21.30;99.90
22852;DHT22;11592;45.460;9.240;2023-05-17T15:07:56;21.20;99.90
22852;DHT22;11592;45.460;9.240;2023-05-17T15:10:23;21.10;99.90
22852;DHT22;11592;45.460;9.240;2023-05-17T15:12:50;21.00;99.90
22852;DHT22;11592;45.460;9.240;2023-05-17T15:15:17;20.90;99.90
22852;DHT22;11592;45.460;9.240;2023-05-17T15:17:47;20.80;99.90
22852;DHT22;11592;45.460;9.240;2023-05-17T15:20:14;20.70;99.90
22852;DHT22;11592;45.460;9.240;2023-05-17T15:22:41;20.50;99.90
22852;DHT22;11592;45.460;9.240;2023-05-17T15:25:08;20.50;99.90
22852;DHT22;11592;45.460;9.240;2023-05-17T15:27:35;20.50;99.90
22852;DHT22;11592;45.460;9.240;2023-05-17T15:30:03;20.50;99.90
22852;DHT22;11592;45.460;9.240;2023-05-17T15:32:30;20.60;99.90
22852;DHT22;11592;45.460;9.240;2023-05-17T15:34:59;20.60;99.90
22852;DHT22;11592;45.460;9.240;2023-05-17T15:37:25;20.60;99.90
22852;DHT22;11592;45.460;9.240;2023-05-17T15:39:52;20.60;99.90
22852;DHT22;11592;45.460;9.240;2023-05-17T15:42:19;20.60;99.90
22852;DHT22;11592;45.460;9.240;2023-05-17T15:44:46;20.50;99.90
22852;DHT22;11592;45.460;9.240;2023-05-17T15:47:12;20.50;99.90
22852;DHT22;11592;45.460;9.240;2023-05-17T15:49:39;20.60;99.90
22852;DHT22;11592;45.460;9.240;2023-05-17T15:52:06;20.50;99.90
22852;DHT22;11592;45.460;9.240;2023-05-17T15:54:34;20.60;99.90
22852;DHT22;11592;45.460;9.240;2023-05-17T15:57:01;20.60;99.90
22852;DHT22;11592;45.460;9.240;2023-05-17T15:59:28;20.70;99.90
22852;DHT22;11592;45.460;9.240;2023-05-17T16:01:55;20.70;99.90
22852;DHT22;11592;45.460;9.240;2023-05-17T16:04:21;20.70;99.90
22852;DHT22;11592;45.460;9.240;2023-05-17T16:06:48;20.70;99.90
22852;DHT22;11592;45.460;9.240;2023-05-17T16:09:15;20.60;99.90
22852;DHT22;11592;45.460;9.240;2023-05-17T16:11:42;20.60;99.90
22852;DHT22;11592;45.460;9.240;2023-05-17T16:14:09;20.70;99.90
22852;DHT22;11592;45.460;9.240;2023-05-17T16:16:36;20.80;99.90